Time;durP1;ratioP1;P1;durP2;ratioP2;P2;SDS_P1;SDS_P2;PMS_P1;PMS_P2;Temp;Humidity;BMP_temperature;BMP_pressure;BME280_temperature;BME280_humidity;BME280_pressure;Samples;Min_cycle;Max_cycle;Signal;HPM_P1;HPM_P2
2022/06/20 00:01:10;;;;;;;7.63;6.93;;;22.40;99.90;;;;;;4974367;28;20550;-76
2022/06/20 00:03:41;;;;;;;10.37;6.80;;;22.40;99.90;;;;;;4974662;28;20528;-76
2022/06/20 00:06:12;;;;;;;9.07;6.67;;;22.30;99.90;;;;;;4977306;28;20844;-77
2022/06/20 00:08:39;;;;;;;7.47;6.80;;;22.30;99.90;;;;;;4984253;28;20467;-76
2022/06/20 00:11:06;;;;;;;8.47;6.80;;;22.20;99.90;;;;;;4974822;28;20467;-74
2022/06/20 00:13:35;;;;;;;10.87;7.00;;;22.20;99.90;;;;;;4975116;28;20462;-76
2022/06/20 00:16:03;;;;;;;8.40;7.50;;;22.10;99.90;;;;;;4977790;28;20801;-76
2022/06/20 00:18:31;;;;;;;8.07;7.23;;;22.10;99.90;;;;;;4978204;28;20483;-75
2022/06/20 00:20:58;;;;;;;10.53;7.20;;;22.00;99.90;;;;;;4977758;28;20478;-76
2022/06/20 00:23:25;;;;;;;8.10;7.30;;;22.00;99.90;;;;;;4979015;28;20491;-76
2022/06/20 00:25:52;;;;;;;11.57;7.97;;;22.00;99.90;;;;;;4978320;28;20456;-76
2022/06/20 00:28:19;;;;;;;12.70;8.07;;;22.00;99.90;;;;;;4978246;28;20489;-76
2022/06/20 00:30:48;;;;;;;8.47;7.53;;;21.90;99.90;;;;;;4976996;28;20466;-76
2022/06/20 00:33:14;;;;;;;8.60;7.37;;;21.90;99.90;;;;;;4978245;28;20537;-76
2022/06/20 00:35:41;;;;;;;9.80;7.20;;;21.80;99.90;;;;;;4978467;28;20538;-76
2022/06/20 00:38:16;;;;;;;11.57;7.27;;;21.80;99.90;;;;;;4978049;28;20485;-77
2022/06/20 00:40:47;;;;;;;12.83;8.07;;;21.80;99.90;;;;;;4977290;28;20489;-76
2022/06/20 00:43:18;;;;;;;11.43;7.20;;;21.80;99.90;;;;;;4993197;28;20457;-76
2022/06/20 00:45:48;;;;;;;7.70;7.00;;;21.70;99.90;;;;;;4990986;28;20459;-76
2022/06/20 00:48:21;;;;;;;8.80;7.40;;;21.60;99.90;;;;;;4988673;28;20487;-76
2022/06/20 00:50:51;;;;;;;13.07;8.23;;;21.70;99.90;;;;;;4987349;28;20566;-76
2022/06/20 00:53:24;;;;;;;8.37;7.50;;;21.70;99.90;;;;;;4987865;28;20495;-77
2022/06/20 00:55:55;;;;;;;8.73;7.07;;;21.70;99.90;;;;;;4987192;28;20554;-75
2022/06/20 00:58:31;;;;;;;10.87;8.00;;;21.70;99.90;;;;;;4985321;28;20495;-76
2022/06/20 01:01:00;;;;;;;13.53;7.40;;;21.80;99.90;;;;;;4985735;28;20462;-76
2022/06/20 01:03:30;;;;;;;11.57;8.30;;;21.90;99.90;;;;;;4979220;28;20841;-76
2022/06/20 01:06:00;;;;;;;15.33;10.53;;;21.90;99.90;;;;;;4976381;28;20462;-76
2022/06/20 01:08:30;;;;;;;16.77;10.90;;;21.90;99.90;;;;;;4976153;28;20909;-76
2022/06/20 01:11:01;;;;;;;14.07;9.73;;;22.00;99.90;;;;;;4975321;28;20569;-76
2022/06/20 01:13:28;;;;;;;20.43;9.30;;;21.90;99.90;;;;;;4977029;28;20870;-75
2022/06/20 01:15:59;;;;;;;12.70;10.20;;;21.80;99.90;;;;;;4976510;28;20511;-76
2022/06/20 01:18:29;;;;;;;15.07;10.23;;;21.60;99.90;;;;;;4976842;28;20487;-76
2022/06/20 01:20:58;;;;;;;14.23;10.53;;;21.50;99.90;;;;;;4975922;28;20463;-76
2022/06/20 01:23:36;;;;;;;12.43;9.90;;;21.40;99.90;;;;;;4976723;28;20981;-76
2022/06/20 01:26:18;;;;;;;13.40;10.27;;;21.20;99.90;;;;;;4975287;28;20895;-77
2022/06/20 01:28:48;;;;;;;14.53;10.80;;;21.10;99.90;;;;;;4976222;28;20469;-76
2022/06/20 01:31:20;;;;;;;15.20;10.93;;;21.10;99.90;;;;;;4975351;28;20471;-76
2022/06/20 01:33:48;;;;;;;14.40;10.60;;;21.10;99.90;;;;;;4975922;28;20455;-76
2022/06/20 01:39:01;;;;;;;11.27;10.10;;;20.90;99.90;;;;;;4976628;28;20446;-76
2022/06/20 01:44:17;;;;;;;15.27;10.93;;;20.80;99.90;;;;;;4976652;28;20442;-76
2022/06/20 01:46:45;;;;;;;11.60;9.90;;;20.70;99.90;;;;;;4975824;28;21291;-76
2022/06/20 01:49:15;;;;;;;12.80;10.27;;;20.70;99.90;;;;;;4975243;28;20459;-76
2022/06/20 01:51:47;;;;;;;14.30;11.73;;;20.70;99.90;;;;;;4975287;28;20959;-76
2022/06/20 01:54:16;;;;;;;14.93;10.87;;;20.60;99.90;;;;;;4975815;28;20474;-75
2022/06/20 01:56:45;;;;;;;15.17;10.23;;;20.60;99.90;;;;;;4975402;28;20491;-76
2022/06/20 01:59:17;;;;;;;16.27;11.13;;;20.50;99.90;;;;;;4974878;28;20466;-76
2022/06/20 02:01:43;;;;;;;12.37;10.50;;;20.50;99.90;;;;;;4975555;28;20463;-75
2022/06/20 02:04:15;;;;;;;14.60;10.30;;;20.40;99.90;;;;;;4975708;28;20971;-75
2022/06/20 02:06:42;;;;;;;13.43;10.60;;;20.30;99.90;;;;;;4975050;28;20487;-75
2022/06/20 02:09:11;;;;;;;16.17;11.33;;;20.30;99.90;;;;;;4975103;28;20490;-76
2022/06/20 02:11:40;;;;;;;13.40;10.70;;;20.30;99.90;;;;;;4975523;28;20498;-76
2022/06/20 02:14:10;;;;;;;15.00;10.80;;;20.30;99.90;;;;;;4975785;28;20466;-75
2022/06/20 02:16:42;;;;;;;15.07;9.77;;;20.40;99.90;;;;;;4975815;28;20483;-75
2022/06/20 02:19:14;;;;;;;12.90;10.30;;;20.40;99.90;;;;;;4999282;23;20875;-70
2022/06/20 02:21:42;;;;;;;15.00;9.87;;;20.40;99.90;;;;;;4991935;28;20465;-70
2022/06/20 02:24:14;;;;;;;12.03;10.43;;;20.30;99.90;;;;;;4992023;28;20465;-70
2022/06/20 02:26:42;;;;;;;15.07;10.70;;;20.30;99.90;;;;;;4991909;28;20494;-71
2022/06/20 02:29:21;;;;;;;13.03;9.53;;;20.30;99.90;;;;;;4991729;28;20830;-71
2022/06/20 02:31:49;;;;;;;11.70;9.63;;;20.30;99.90;;;;;;4991815;28;20492;-69
2022/06/20 02:34:16;;;;;;;13.10;9.27;;;20.30;99.90;;;;;;4992080;28;20467;-70
2022/06/20 02:36:43;;;;;;;14.90;10.17;;;20.30;99.90;;;;;;4991731;28;20904;-70
2022/06/20 02:39:10;;;;;;;13.50;10.40;;;20.30;99.90;;;;;;4991232;28;20477;-71
2022/06/20 02:41:40;;;;;;;9.70;8.70;;;20.20;99.90;;;;;;4991359;28;20462;-71
2022/06/20 02:44:18;;;;;;;16.43;8.40;;;20.20;99.90;;;;;;4991679;28;20469;-70
2022/06/20 02:46:47;;;;;;;17.93;8.27;;;20.10;99.90;;;;;;4991535;28;20485;-70
2022/06/20 02:49:19;;;;;;;13.50;7.77;;;20.10;99.90;;;;;;4991112;28;20466;-70
2022/06/20 02:51:49;;;;;;;15.43;9.10;;;20.10;99.90;;;;;;4991467;28;20462;-71
2022/06/20 02:54:19;;;;;;;14.03;9.17;;;20.00;99.90;;;;;;4991747;28;20889;-71
2022/06/20 02:56:49;;;;;;;10.70;9.10;;;20.00;99.90;;;;;;4991348;28;20493;-70
2022/06/20 02:59:23;;;;;;;15.20;8.90;;;20.00;99.90;;;;;;4989728;28;20466;-70
2022/06/20 03:01:55;;;;;;;12.70;9.77;;;20.00;99.90;;;;;;4991405;28;20572;-70
2022/06/20 03:04:24;;;;;;;11.60;8.80;;;20.10;99.90;;;;;;4991408;28;20458;-70
2022/06/20 03:06:56;;;;;;;13.40;8.90;;;20.20;99.90;;;;;;4991212;28;20486;-70
2022/06/20 03:09:28;;;;;;;15.57;9.97;;;20.20;99.90;;;;;;4990820;28;20950;-70
2022/06/20 03:11:56;;;;;;;14.30;8.80;;;20.20;99.90;;;;;;4991317;28;20465;-70
2022/06/20 03:14:30;;;;;;;16.90;8.97;;;20.10;99.90;;;;;;4991531;28;20494;-70
2022/06/20 03:16:58;;;;;;;13.70;8.50;;;20.10;99.90;;;;;;4991185;28;20486;-70
2022/06/20 03:19:32;;;;;;;11.97;8.90;;;20.00;99.90;;;;;;4990669;28;20497;-70
2022/06/20 03:22:02;;;;;;;16.10;9.00;;;20.00;99.90;;;;;;4991307;28;20484;-70
2022/06/20 03:24:30;;;;;;;11.63;8.80;;;20.00;99.90;;;;;;4990745;28;20466;-68
2022/06/20 03:26:57;;;;;;;9.57;8.63;;;20.00;99.90;;;;;;4990951;28;20830;-69
2022/06/20 03:29:25;;;;;;;14.67;8.60;;;20.00;99.90;;;;;;4990640;28;20466;-69
2022/06/20 03:31:52;;;;;;;14.53;9.30;;;20.00;99.90;;;;;;4990495;28;20458;-69
2022/06/20 03:34:19;;;;;;;16.00;9.20;;;20.00;99.90;;;;;;4989837;28;20486;-70
2022/06/20 03:36:47;;;;;;;14.53;9.73;;;20.00;99.90;;;;;;4989871;28;20853;-69
2022/06/20 03:39:16;;;;;;;11.47;8.73;;;20.00;99.90;;;;;;4989180;28;20462;-69
2022/06/20 03:41:43;;;;;;;15.50;10.10;;;20.00;99.90;;;;;;4989831;28;20493;-68
2022/06/20 03:44:16;;;;;;;13.53;8.67;;;20.10;99.90;;;;;;4989595;28;20462;-68
2022/06/20 03:46:54;;;;;;;12.93;8.90;;;20.10;99.90;;;;;;4989539;28;20477;-68
2022/06/20 03:49:27;;;;;;;15.73;10.00;;;20.00;99.90;;;;;;4986606;28;20558;-69
2022/06/20 03:52:01;;;;;;;15.53;8.77;;;20.00;99.90;;;;;;4994088;28;20203;-70
2022/06/20 03:54:33;;;;;;;11.53;8.07;;;20.00;99.90;;;;;;4994032;28;20482;-69
2022/06/20 03:57:03;;;;;;;9.23;8.13;;;20.00;99.90;;;;;;4990953;28;20481;-69
2022/06/20 03:59:38;;;;;;;14.87;8.93;;;20.00;99.90;;;;;;4992585;28;20466;-70
2022/06/20 04:02:11;;;;;;;11.47;8.43;;;20.00;99.90;;;;;;4993221;28;20457;-70
2022/06/20 04:04:43;;;;;;;12.10;8.87;;;20.10;99.90;;;;;;4990818;28;20454;-69
2022/06/20 04:07:18;;;;;;;10.17;7.80;;;20.00;99.90;;;;;;4992906;28;20489;-69
2022/06/20 04:12:40;;;;;;;14.47;9.10;;;20.10;99.90;;;;;;4993035;28;20477;-69
2022/06/20 04:15:11;;;;;;;11.20;9.10;;;20.00;99.90;;;;;;4992879;28;20464;-69
2022/06/20 04:20:39;;;;;;;12.43;9.67;;;20.00;99.90;;;;;;4991675;28;20441;-69
2022/06/20 04:23:12;;;;;;;15.17;8.93;;;20.00;99.90;;;;;;4991767;28;20459;-69
2022/06/20 04:25:47;;;;;;;12.73;9.50;;;20.00;99.90;;;;;;4991571;28;20482;-69
2022/06/20 04:28:20;;;;;;;11.20;9.37;;;20.00;99.90;;;;;;4992343;28;20556;-69
2022/06/20 04:30:54;;;;;;;14.90;9.00;;;20.00;99.90;;;;;;4992910;28;20465;-69
2022/06/20 04:33:28;;;;;;;13.20;9.17;;;19.90;99.90;;;;;;4991532;28;21071;-68
2022/06/20 04:36:04;;;;;;;17.07;10.47;;;19.80;99.90;;;;;;4994058;28;20463;-69
2022/06/20 04:38:39;;;;;;;10.97;9.70;;;19.60;99.90;;;;;;4993997;28;20486;-69
2022/06/20 04:41:11;;;;;;;10.73;8.87;;;19.60;99.90;;;;;;4993466;28;20824;-69
2022/06/20 04:43:43;;;;;;;13.60;9.30;;;19.60;99.90;;;;;;4994067;28;20458;-69
2022/06/20 04:46:15;;;;;;;15.03;10.00;;;19.60;99.90;;;;;;4993852;28;20466;-69
2022/06/20 04:48:44;;;;;;;13.87;9.33;;;19.60;99.90;;;;;;4993761;28;20470;-68
2022/06/20 04:51:16;;;;;;;14.63;8.90;;;19.60;99.90;;;;;;4993196;28;20474;-69
2022/06/20 04:53:47;;;;;;;12.13;10.17;;;19.60;99.90;;;;;;4993824;28;20482;-68
2022/06/20 04:56:15;;;;;;;12.13;8.73;;;19.60;99.90;;;;;;4993665;28;20466;-69
2022/06/20 04:58:48;;;;;;;10.90;9.40;;;19.70;99.90;;;;;;4993726;28;20821;-69
2022/06/20 05:01:16;;;;;;;11.97;9.43;;;19.70;99.90;;;;;;4992489;28;20492;-69
2022/06/20 05:03:46;;;;;;;14.53;9.30;;;19.80;99.90;;;;;;4993025;28;20453;-69
2022/06/20 05:06:20;;;;;;;13.77;9.40;;;19.80;99.90;;;;;;4993316;28;20480;-70
2022/06/20 05:08:52;;;;;;;9.67;8.77;;;19.80;99.90;;;;;;4994030;28;20964;-69
2022/06/20 05:11:25;;;;;;;17.33;10.83;;;19.90;99.90;;;;;;4993210;28;20473;-69
2022/06/20 05:13:56;;;;;;;13.90;10.03;;;19.90;99.90;;;;;;4993397;28;20490;-69
2022/06/20 05:16:28;;;;;;;13.60;9.93;;;19.90;99.90;;;;;;4987871;28;20820;-69
2022/06/20 05:18:58;;;;;;;11.73;9.40;;;19.90;99.90;;;;;;4991020;28;21125;-68
2022/06/20 05:21:37;;;;;;;11.77;9.47;;;19.90;99.90;;;;;;4990989;28;20474;-69
2022/06/20 05:24:11;;;;;;;10.73;9.63;;;20.00;99.90;;;;;;4990952;28;20458;-70
2022/06/20 05:26:43;;;;;;;12.50;10.20;;;20.10;99.90;;;;;;4991480;28;20481;-69
2022/06/20 05:29:15;;;;;;;13.20;9.33;;;20.10;99.90;;;;;;4988966;28;20506;-70
2022/06/20 05:31:44;;;;;;;12.83;11.40;;;20.10;99.90;;;;;;4992003;28;20484;-69
2022/06/20 05:34:15;;;;;;;14.20;10.97;;;20.10;99.90;;;;;;4991648;28;20486;-69
2022/06/20 05:36:50;;;;;;;13.50;9.40;;;19.90;99.90;;;;;;4992005;28;20482;-70
2022/06/20 05:39:25;;;;;;;16.90;10.03;;;19.90;99.90;;;;;;4991414;28;20488;-70
2022/06/20 05:41:51;;;;;;;15.10;9.93;;;19.90;99.90;;;;;;4991324;28;20461;-69
2022/06/20 05:44:18;;;;;;;10.90;9.80;;;19.90;99.90;;;;;;4991618;28;20465;-69
2022/06/20 05:46:48;;;;;;;12.80;10.07;;;19.90;99.90;;;;;;4991982;28;20482;-69
2022/06/20 05:49:20;;;;;;;11.57;9.47;;;20.00;99.90;;;;;;4991315;28;20570;-69
2022/06/20 05:51:48;;;;;;;13.07;10.00;;;20.00;99.90;;;;;;4991498;28;20469;-69
2022/06/20 05:54:21;;;;;;;13.47;9.90;;;20.00;99.90;;;;;;4991474;28;20490;-70
2022/06/20 05:56:52;;;;;;;14.37;10.00;;;20.10;99.90;;;;;;4991552;28;20484;-70
2022/06/20 05:59:34;;;;;;;11.37;10.27;;;20.00;99.90;;;;;;4991033;28;20834;-70
2022/06/20 06:02:10;;;;;;;13.03;10.57;;;20.00;99.90;;;;;;4991356;28;20466;-69
2022/06/20 06:04:42;;;;;;;14.57;11.10;;;20.10;99.90;;;;;;4990734;28;20469;-69
2022/06/20 06:07:21;;;;;;;15.23;10.47;;;20.10;99.90;;;;;;4990994;28;20493;-69
2022/06/20 06:09:55;;;;;;;13.83;10.70;;;20.10;99.90;;;;;;4990953;28;20468;-69
2022/06/20 06:12:27;;;;;;;11.33;10.13;;;20.10;99.90;;;;;;4990133;28;20469;-69
2022/06/20 06:15:01;;;;;;;12.67;10.10;;;20.20;99.90;;;;;;4990923;28;20877;-69
2022/06/20 06:17:33;;;;;;;13.10;9.70;;;20.20;99.90;;;;;;4990318;28;20497;-69
2022/06/20 06:20:03;;;;;;;14.50;9.17;;;20.40;99.90;;;;;;4989472;28;20476;-69
2022/06/20 06:22:33;;;;;;;12.03;10.10;;;20.40;99.90;;;;;;4992151;28;20516;-69
2022/06/20 06:25:06;;;;;;;12.87;10.73;;;20.50;99.90;;;;;;4991303;28;20458;-69
2022/06/20 06:27:35;;;;;;;13.40;9.27;;;20.60;99.90;;;;;;4991064;28;20485;-69
2022/06/20 06:30:05;;;;;;;11.77;9.60;;;20.60;99.90;;;;;;4990404;28;20473;-69
2022/06/20 06:32:37;;;;;;;13.80;9.83;;;20.60;99.90;;;;;;4991802;28;20850;-70
2022/06/20 06:35:15;;;;;;;10.40;9.30;;;20.70;99.90;;;;;;4990886;28;20486;-69
2022/06/20 06:37:49;;;;;;;13.90;10.40;;;20.70;99.90;;;;;;4991392;28;20485;-69
2022/06/20 06:40:24;;;;;;;11.33;9.80;;;20.90;99.90;;;;;;4990581;28;20469;-69
2022/06/20 06:42:54;;;;;;;12.87;9.63;;;21.10;99.90;;;;;;4990619;28;20488;-70
2022/06/20 06:45:29;;;;;;;10.97;8.80;;;21.20;99.90;;;;;;4991614;28;20465;-70
2022/06/20 06:48:01;;;;;;;13.40;10.50;;;21.30;99.90;;;;;;4990994;28;20482;-70
2022/06/20 06:50:34;;;;;;;13.40;9.43;;;21.40;99.90;;;;;;4991026;28;20466;-69
2022/06/20 06:53:05;;;;;;;14.07;10.40;;;21.50;99.90;;;;;;4990803;28;20980;-69
2022/06/20 06:55:36;;;;;;;10.43;9.40;;;21.60;99.90;;;;;;4991087;28;20472;-69
2022/06/20 06:58:10;;;;;;;15.10;9.60;;;21.60;99.90;;;;;;4990441;28;20490;-70
2022/06/20 07:00:40;;;;;;;12.27;9.30;;;21.60;99.90;;;;;;4990745;28;20848;-70
2022/06/20 07:03:14;;;;;;;12.03;9.50;;;21.70;99.90;;;;;;4990538;28;20470;-70
2022/06/20 07:05:46;;;;;;;10.93;9.83;;;21.80;99.90;;;;;;4990977;28;20965;-70
2022/06/20 07:08:15;;;;;;;10.77;9.60;;;21.90;99.90;;;;;;4990597;28;20849;-70
2022/06/20 07:10:49;;;;;;;10.80;9.33;;;21.90;99.90;;;;;;4990434;28;20554;-69
2022/06/20 07:13:25;;;;;;;10.43;9.37;;;21.90;99.90;;;;;;4990577;28;20465;-70
2022/06/20 07:15:56;;;;;;;9.87;8.83;;;22.00;99.90;;;;;;4990692;28;20466;-69
2022/06/20 07:18:35;;;;;;;12.57;8.93;;;22.10;99.90;;;;;;4990525;28;20497;-70
2022/06/20 07:21:03;;;;;;;11.70;9.77;;;22.20;99.90;;;;;;4990346;28;20469;-70
2022/06/20 07:23:30;;;;;;;10.87;9.47;;;22.30;99.90;;;;;;4990875;28;20972;-70
2022/06/20 07:25:59;;;;;;;12.23;8.63;;;22.50;99.90;;;;;;4993618;28;20981;-70
2022/06/20 07:28:34;;;;;;;14.63;10.73;;;22.60;99.90;;;;;;4994645;28;20552;-69
2022/06/20 07:31:10;;;;;;;11.10;8.80;;;22.70;99.90;;;;;;4993886;28;20539;-70
2022/06/20 07:33:43;;;;;;;11.93;9.37;;;22.80;99.90;;;;;;4994867;28;20482;-70
2022/06/20 07:36:13;;;;;;;8.97;7.80;;;22.80;99.90;;;;;;4994532;28;20469;-70
2022/06/20 07:38:46;;;;;;;10.80;9.70;;;22.90;99.90;;;;;;4994721;28;20468;-70
2022/06/20 07:41:18;;;;;;;10.67;8.70;;;23.00;99.90;;;;;;4991971;28;20472;-70
2022/06/20 07:43:52;;;;;;;10.30;8.37;;;23.10;99.90;;;;;;4993921;28;20458;-70
2022/06/20 07:46:24;;;;;;;11.80;9.13;;;23.10;99.90;;;;;;4994062;28;20468;-70
2022/06/20 07:48:54;;;;;;;10.87;7.83;;;23.20;99.90;;;;;;4993244;28;20467;-70
2022/06/20 07:51:24;;;;;;;10.03;8.47;;;23.30;99.90;;;;;;4993434;28;20949;-70
2022/06/20 07:53:55;;;;;;;11.23;8.27;;;23.40;99.90;;;;;;4993631;28;20481;-70
2022/06/20 07:56:27;;;;;;;11.83;8.23;;;23.60;99.90;;;;;;4993106;28;20568;-70
2022/06/20 07:59:00;;;;;;;9.07;8.07;;;23.60;99.90;;;;;;4993507;28;20470;-70
2022/06/20 08:01:31;;;;;;;9.07;7.63;;;23.80;99.90;;;;;;4993160;28;20846;-69
2022/06/20 08:04:01;;;;;;;8.23;6.47;;;23.80;99.90;;;;;;4992076;28;20449;-70
2022/06/20 08:06:33;;;;;;;8.27;7.17;;;23.80;99.90;;;;;;4993330;28;20985;-70
2022/06/20 08:09:03;;;;;;;8.90;6.70;;;23.80;99.90;;;;;;4993240;28;20477;-70
2022/06/20 08:11:43;;;;;;;9.07;7.13;;;23.80;99.90;;;;;;4992906;28;20468;-70
2022/06/20 08:14:23;;;;;;;8.23;7.27;;;23.90;99.90;;;;;;4993237;28;20498;-70
2022/06/20 08:16:53;;;;;;;9.80;6.90;;;23.90;99.90;;;;;;4993177;28;21013;-70
2022/06/20 08:20:02;;;;;;;8.10;6.90;;;24.00;99.90;;;;;;5013987;23;20494;-94
2022/06/20 08:22:48;;;;;;;8.37;6.57;;;24.20;99.90;;;;;;4982733;28;20513;-95
2022/06/20 08:25:20;;;;;;;9.50;6.80;;;24.30;99.90;;;;;;4982097;28;20825;-94
2022/06/20 08:27:54;;;;;;;11.30;7.10;;;24.40;99.90;;;;;;4984399;28;20458;-95
2022/06/20 08:30:32;;;;;;;8.40;6.37;;;24.50;99.90;;;;;;4987207;28;20487;-95
2022/06/20 08:33:08;;;;;;;10.00;7.23;;;24.50;99.90;;;;;;4981476;28;20458;-94
2022/06/20 08:35:44;;;;;;;8.50;6.80;;;24.70;99.90;;;;;;4982970;28;20482;-94
2022/06/20 08:38:22;;;;;;;7.13;6.30;;;24.80;99.90;;;;;;4983328;28;20462;-95
2022/06/20 08:41:12;;;;;;;8.87;6.73;;;24.90;99.90;;;;;;4983353;28;20482;-94
2022/06/20 08:44:16;;;;;;;14.47;6.80;;;25.00;99.90;;;;;;4983329;28;20465;-94
2022/06/20 08:47:17;;;;;;;7.43;6.43;;;25.10;99.90;;;;;;4983617;28;20554;-95
2022/06/20 08:50:25;;;;;;;7.00;6.30;;;25.30;99.90;;;;;;4985808;28;20481;-92
2022/06/20 08:53:35;;;;;;;14.97;6.43;;;25.40;99.90;;;;;;4988350;28;20462;-92
2022/06/20 08:56:12;;;;;;;9.63;7.20;;;25.50;99.90;;;;;;4986495;28;20466;-92
2022/06/20 08:58:51;;;;;;;8.20;5.87;;;25.60;99.90;;;;;;4986929;28;20469;-92
2022/06/20 09:01:30;;;;;;;9.23;6.63;;;25.70;99.90;;;;;;4986547;28;20673;-91
2022/06/20 09:04:15;;;;;;;11.20;5.73;;;25.70;99.90;;;;;;4987813;28;20471;-92
2022/06/20 09:07:07;;;;;;;6.20;5.60;;;25.80;99.90;;;;;;4995173;28;20461;-91
2022/06/20 09:09:54;;;;;;;9.33;6.10;;;25.90;99.90;;;;;;4995937;28;20486;-92
2022/06/20 09:12:48;;;;;;;11.37;6.43;;;26.10;99.90;;;;;;5006023;28;20465;-92
2022/06/20 09:15:46;;;;;;;7.37;6.40;;;26.30;99.90;;;;;;5005176;28;20486;-92
2022/06/20 09:19:09;;;;;;;11.17;5.67;;;26.40;99.90;;;;;;5007007;28;20490;-92
2022/06/20 09:25:19;;;;;;;10.00;5.87;;;27.10;99.90;;;;;;4977604;28;20464;-94
2022/06/20 09:28:32;;;;;;;9.47;6.30;;;27.30;99.90;;;;;;4991764;28;20572;-94
2022/06/20 09:31:10;;;;;;;6.80;5.60;;;27.40;99.90;;;;;;4989090;28;20498;-95
2022/06/20 09:34:02;;;;;;;7.83;7.03;;;27.40;99.90;;;;;;4986366;28;20987;-94
2022/06/20 09:40:03;;;;;;;6.23;5.57;;;27.60;99.90;;;;;;4987601;28;20539;-94
2022/06/20 09:42:41;;;;;;;7.03;5.90;;;27.80;99.90;;;;;;4996152;28;20480;-95
2022/06/20 09:48:07;;;;;;;8.67;6.47;;;27.90;99.90;;;;;;4987835;28;20467;-95
2022/06/20 09:50:49;;;;;;;10.60;6.70;;;27.80;99.90;;;;;;4990680;28;20495;-95
2022/06/20 09:53:35;;;;;;;7.33;6.17;;;27.50;99.90;;;;;;4992473;28;20911;-95
2022/06/20 09:56:11;;;;;;;6.67;6.07;;;27.20;99.90;;;;;;4988240;28;20496;-95
2022/06/20 09:58:45;;;;;;;8.00;6.63;;;27.10;99.90;;;;;;4968311;28;20476;-94
2022/06/20 10:01:16;;;;;;;11.07;6.03;;;26.90;99.90;;;;;;4967936;29;20492;-95
2022/06/20 10:03:52;;;;;;;7.60;5.70;;;26.80;99.90;;;;;;4965673;29;20469;-95
2022/06/20 10:06:39;;;;;;;9.20;5.97;;;26.80;99.90;;;;;;4965389;29;20471;-94
2022/06/20 10:09:14;;;;;;;8.17;5.63;;;26.70;99.90;;;;;;4964553;29;20854;-94
2022/06/20 10:12:18;;;;;;;10.00;5.67;;;26.70;99.90;;;;;;4962060;29;20965;-94
2022/06/20 10:15:12;;;;;;;6.83;6.13;;;26.70;99.90;;;;;;4963588;28;20858;-95
2022/06/20 10:17:48;;;;;;;6.87;6.17;;;26.70;99.90;;;;;;4960005;28;20495;-94
2022/06/20 10:20:43;;;;;;;6.90;6.20;;;26.70;99.90;;;;;;4975750;28;20486;-94
2022/06/20 10:24:38;;;;;;;;;;;;;;;;;;;;;
2022/06/20 10:27:25;;;;;;;9.73;6.33;;;27.50;99.90;;;;;;4907282;28;20825;-95
2022/06/20 10:30:06;;;;;;;6.20;5.53;;;28.10;99.90;;;;;;4985673;28;20483;-94
2022/06/20 10:32:47;;;;;;;8.67;5.40;;;28.30;99.90;;;;;;4986919;28;20459;-95
2022/06/20 10:35:18;;;;;;;6.93;5.47;;;28.20;99.90;;;;;;4987125;28;20492;-95
2022/06/20 10:37:57;;;;;;;7.30;5.67;;;28.00;99.90;;;;;;4990063;28;20453;-95
2022/06/20 10:40:32;;;;;;;8.73;5.07;;;28.10;99.90;;;;;;4990728;28;20488;-94
2022/06/20 10:43:06;;;;;;;7.10;5.33;;;28.30;99.90;;;;;;5009495;28;20464;-94
2022/06/20 10:45:40;;;;;;;7.93;4.80;;;28.40;99.90;;;;;;5005917;28;20464;-94
2022/06/20 10:48:42;;;;;;;10.67;4.77;;;28.30;99.90;;;;;;5001733;28;20459;-93
2022/06/20 10:51:17;;;;;;;8.27;6.40;;;27.80;99.90;;;;;;5004964;28;21045;-95
2022/06/20 10:53:55;;;;;;;9.07;5.50;;;27.50;99.90;;;;;;5011388;28;20570;-94
2022/06/20 11:22:45;;;;;;;3.90;3.33;;;29.00;97.90;;;;;;4968974;28;20462;-72
2022/06/20 11:25:23;;;;;;;4.70;3.60;;;29.00;98.10;;;;;;4970631;28;20842;-70
2022/06/20 11:28:28;;;;;;;4.40;3.67;;;29.10;97.30;;;;;;4970187;28;21172;-70
2022/06/20 11:31:01;;;;;;;6.50;3.57;;;29.10;97.60;;;;;;4952603;28;20474;-69
2022/06/20 11:34:04;;;;;;;8.63;3.70;;;29.30;96.50;;;;;;4970265;28;20499;-70
2022/06/20 11:36:44;;;;;;;4.00;3.60;;;29.50;97.00;;;;;;4970191;28;20679;-70
2022/06/20 11:39:25;;;;;;;5.43;3.90;;;29.40;96.10;;;;;;4969527;28;20476;-70
2022/06/20 11:41:54;;;;;;;4.83;4.00;;;29.20;96.90;;;;;;4970606;28;20467;-69
2022/06/20 11:44:43;;;;;;;4.87;3.73;;;29.10;96.90;;;;;;4970631;28;20468;-70
2022/06/20 11:47:33;;;;;;;4.40;3.57;;;29.10;96.60;;;;;;4969918;28;20487;-70
2022/06/20 11:50:28;;;;;;;7.27;4.43;;;29.20;97.20;;;;;;4969554;28;20471;-69
2022/06/20 11:52:59;;;;;;;6.80;5.10;;;29.10;97.00;;;;;;4970538;28;20950;-70
2022/06/20 11:55:34;;;;;;;7.17;5.00;;;29.00;98.20;;;;;;4969998;28;21083;-70
2022/06/20 11:58:09;;;;;;;5.57;5.00;;;28.50;98.60;;;;;;4970389;28;20623;-72
2022/06/20 12:00:40;;;;;;;16.93;6.97;;;28.20;99.70;;;;;;4969606;28;20462;-71
2022/06/20 12:03:16;;;;;;;10.37;5.60;;;27.90;99.80;;;;;;4970292;28;20463;-73
2022/06/20 12:05:51;;;;;;;6.00;4.67;;;27.80;99.90;;;;;;4970362;28;20463;-72
2022/06/20 12:08:34;;;;;;;5.93;3.67;;;27.90;99.90;;;;;;4970630;28;20486;-71
2022/06/20 12:11:12;;;;;;;5.97;4.33;;;27.80;99.10;;;;;;4970905;28;20845;-72
2022/06/20 12:13:56;;;;;;;9.13;3.77;;;27.70;99.70;;;;;;4973859;28;20473;-72
2022/06/20 12:16:43;;;;;;;3.80;3.40;;;27.50;98.40;;;;;;4973816;28;21035;-72
2022/06/20 12:24:59;;;;;;;4.17;3.10;;;26.70;98.70;;;;;;4973054;28;20585;-72
2022/06/20 12:27:28;;;;;;;3.70;3.10;;;26.30;97.90;;;;;;4973830;28;20490;-72
2022/06/20 12:29:54;;;;;;;6.87;3.17;;;26.20;99.00;;;;;;4972653;28;20464;-71
2022/06/20 12:32:27;;;;;;;3.90;3.07;;;26.00;98.80;;;;;;4973712;28;20486;-72
2022/06/20 12:34:59;;;;;;;6.60;3.00;;;26.00;99.20;;;;;;4973285;28;20467;-72
2022/06/20 12:37:33;;;;;;;4.47;2.60;;;25.80;99.40;;;;;;4973253;28;20488;-72
2022/06/20 12:40:06;;;;;;;3.27;2.70;;;25.70;99.40;;;;;;4972523;28;20533;-71
2022/06/20 12:42:47;;;;;;;3.93;2.90;;;25.60;99.40;;;;;;4973723;28;20467;-72
2022/06/20 12:45:45;;;;;;;5.00;3.37;;;25.70;99.70;;;;;;4973740;28;20814;-72
2022/06/20 12:48:26;;;;;;;6.07;3.60;;;26.00;99.50;;;;;;4970582;28;20518;-72
2022/06/20 12:51:00;;;;;;;8.20;4.33;;;26.30;99.90;;;;;;4972768;28;20474;-73
2022/06/20 12:53:42;;;;;;;10.77;4.50;;;26.40;99.90;;;;;;4972858;28;20469;-72
2022/06/20 12:56:21;;;;;;;7.33;4.47;;;26.30;99.90;;;;;;4973049;28;20491;-72
2022/06/20 12:59:21;;;;;;;7.33;4.10;;;26.30;99.90;;;;;;4972590;28;20491;-72
2022/06/20 13:01:56;;;;;;;8.00;5.47;;;26.80;99.90;;;;;;4972355;28;20463;-70
2022/06/20 13:04:41;;;;;;;10.50;4.30;;;27.10;99.90;;;;;;4973254;28;20463;-72
2022/06/20 13:07:40;;;;;;;7.73;4.43;;;27.30;99.90;;;;;;4972830;28;20483;-72
2022/06/20 13:10:27;;;;;;;8.40;4.23;;;27.10;99.90;;;;;;4971902;28;20470;-70
2022/06/20 13:13:17;;;;;;;7.10;4.27;;;27.10;99.90;;;;;;4972607;28;20460;-71
2022/06/20 13:15:52;;;;;;;7.60;4.30;;;27.30;99.90;;;;;;4972199;28;20489;-72
2022/06/20 13:18:41;;;;;;;7.90;4.60;;;27.60;99.90;;;;;;4972995;28;20982;-72
2022/06/20 13:21:16;;;;;;;7.27;4.60;;;27.80;99.90;;;;;;4971824;28;20568;-72
2022/06/20 13:24:01;;;;;;;8.23;4.93;;;27.60;99.90;;;;;;4972793;28;20463;-72
2022/06/20 13:26:35;;;;;;;5.73;4.40;;;27.30;99.90;;;;;;4971908;28;20520;-72
2022/06/20 13:29:27;;;;;;;7.37;4.53;;;27.10;99.90;;;;;;4972505;28;20461;-72
2022/06/20 13:32:00;;;;;;;7.03;5.33;;;27.40;99.90;;;;;;4971913;28;20477;-72
2022/06/20 13:34:42;;;;;;;9.53;4.93;;;27.60;99.90;;;;;;4972932;28;20465;-71
2022/06/20 13:37:23;;;;;;;7.30;4.50;;;27.70;99.90;;;;;;4971633;28;20503;-72
2022/06/20 13:39:57;;;;;;;7.43;5.00;;;27.70;99.90;;;;;;4971666;28;20463;-72
2022/06/20 13:42:29;;;;;;;6.77;4.47;;;27.60;99.90;;;;;;4972706;28;20474;-73
2022/06/20 13:45:00;;;;;;;6.10;4.90;;;27.20;99.90;;;;;;4971691;28;20468;-72
2022/06/20 13:47:31;;;;;;;5.30;4.43;;;26.60;99.90;;;;;;4972381;28;20488;-72
2022/06/20 13:50:19;;;;;;;6.10;5.03;;;26.10;99.90;;;;;;4970535;28;20464;-72
2022/06/20 13:52:53;;;;;;;5.80;5.30;;;25.60;99.90;;;;;;4973445;28;20474;-71
2022/06/20 13:55:26;;;;;;;6.70;5.30;;;25.20;99.90;;;;;;4973036;28;21018;-70
2022/06/20 13:58:05;;;;;;;6.30;5.07;;;24.80;99.90;;;;;;4972902;28;20487;-69
2022/06/20 14:00:34;;;;;;;6.20;4.57;;;24.50;99.90;;;;;;4972415;28;20471;-69
2022/06/20 14:03:14;;;;;;;5.43;4.53;;;24.30;99.90;;;;;;4972923;28;20472;-69
2022/06/20 14:05:42;;;;;;;5.70;4.90;;;24.20;99.90;;;;;;4973469;28;20463;-69
2022/06/20 14:08:16;;;;;;;5.03;4.53;;;24.00;99.90;;;;;;4972786;28;20487;-69
2022/06/20 14:10:47;;;;;;;4.90;4.17;;;23.90;99.90;;;;;;4972728;28;20467;-69
2022/06/20 14:13:22;;;;;;;4.47;4.07;;;23.80;99.90;;;;;;4972757;28;20467;-69
2022/06/20 14:15:50;;;;;;;5.50;4.40;;;23.60;99.90;;;;;;4972985;28;20485;-69